Time;durP1;ratioP1;P1;durP2;ratioP2;P2;SDS_P1;SDS_P2;PMS_P1;PMS_P2;Temp;Humidity;BMP_temperature;BMP_pressure;BME280_temperature;BME280_humidity;BME280_pressure;Samples;Min_cycle;Max_cycle;Signal;HPM_P1;HPM_P2
2022/11/20 00:00:22;;;;;;;26.83;12.10;;;;;;;;;;4952002;28;20079;-67
2022/11/20 00:02:59;;;;;;;21.63;12.20;;;;;;;;;;4937894;28;20030;-67
2022/11/20 00:05:26;;;;;;;21.97;12.43;;;;;;;;;;4967136;28;20451;-67
2022/11/20 00:07:54;;;;;;;21.10;12.17;;;;;;;;;;4934278;28;20033;-66
2022/11/20 00:10:39;;;;;;;21.60;13.00;;;;;;;;;;4940017;28;20679;-67
2022/11/20 00:13:44;;;;;;;22.97;12.33;;;;;;;;;;4938921;28;20248;-67
2022/11/20 00:16:51;;;;;;;19.97;12.27;;;;;;;;;;4906358;28;20242;-67
2022/11/20 00:19:32;;;;;;;24.30;13.47;;;;;;;;;;4817024;28;20047;-67
2022/11/20 00:22:26;;;;;;;22.37;11.90;;;;;;;;;;4836960;28;20039;-66
2022/11/20 00:24:57;;;;;;;18.50;10.73;;;;;;;;;;4839423;28;20051;-66
2022/11/20 00:27:38;;;;;;;19.27;10.90;;;;;;;;;;4845410;28;20048;-66
2022/11/20 00:33:26;;;;;;;21.27;11.63;;;;;;;;;;4829360;28;20276;-69
2022/11/20 00:36:10;;;;;;;18.40;10.77;;;;;;;;;;4840119;28;20069;-69
2022/11/20 00:38:50;;;;;;;18.60;11.13;;;;;;;;;;4894020;28;20030;-69
2022/11/20 00:41:32;;;;;;;18.47;11.67;;;;;;;;;;4886794;28;20049;-69
2022/11/20 00:44:06;;;;;;;19.77;11.53;;;;;;;;;;4909161;28;21252;-70
2022/11/20 00:47:06;;;;;;;19.00;11.10;;;;;;;;;;4860564;28;20036;-69
2022/11/20 00:49:41;;;;;;;19.00;10.57;;;;;;;;;;4859891;28;20077;-69
2022/11/20 00:52:26;;;;;;;19.20;10.60;;;;;;;;;;4913468;28;20046;-69
2022/11/20 00:55:14;;;;;;;20.30;11.17;;;;;;;;;;4953290;28;20060;-69
2022/11/20 00:58:14;;;;;;;19.30;11.37;;;;;;;;;;4925625;28;20597;-69
2022/11/20 01:01:15;;;;;;;22.43;12.07;;;;;;;;;;4901464;28;20140;-66
2022/11/20 01:04:11;;;;;;;20.50;11.97;;;;;;;;;;4885361;28;20237;-66
2022/11/20 01:06:53;;;;;;;22.00;12.17;;;;;;;;;;4926288;28;20130;-66
2022/11/20 01:09:28;;;;;;;20.83;12.13;;;;;;;;;;4948378;28;20113;-66
2022/11/20 01:12:30;;;;;;;25.87;12.60;;;;;;;;;;4984000;28;20041;-66
2022/11/20 01:15:12;;;;;;;25.37;12.53;;;;;;;;;;4968491;28;20037;-66
2022/11/20 01:17:52;;;;;;;26.53;14.53;;;;;;;;;;5003303;28;22694;-66
2022/11/20 01:20:29;;;;;;;27.20;14.00;;;;;;;;;;4920164;28;20087;-65
2022/11/20 01:26:15;;;;;;;26.47;13.93;;;;;;;;;;4928019;28;20491;-66
2022/11/20 01:28:44;;;;;;;29.03;14.53;;;;;;;;;;4981893;28;20898;-66
2022/11/20 01:31:16;;;;;;;;;;;;;;;;;;4957021;28;21103;-66
2022/11/20 01:33:42;;;;;;;28.03;14.13;;;;;;;;;;4932390;28;19923;-66
2022/11/20 01:36:17;;;;;;;28.02;14.32;;;;;;;;;;4953231;28;20037;-66
2022/11/20 01:38:53;;;;;;;27.92;13.75;;;;;;;;;;4967802;28;20025;-66
2022/11/20 01:51:11;;;;;;;24.00;12.33;;;;;;;;;;4918238;28;20098;-66
2022/11/20 01:54:24;;;;;;;24.30;12.97;;;;;;;;;;4920407;28;20063;-66
2022/11/20 01:56:54;;;;;;;22.57;12.60;;;;;;;;;;4940881;28;20060;-66
2022/11/20 01:59:43;;;;;;;23.30;12.50;;;;;;;;;;4928215;28;20135;-68
2022/11/20 02:02:24;;;;;;;25.17;13.47;;;;;;;;;;4929791;28;20638;-69
2022/11/20 02:05:05;;;;;;;24.47;12.63;;;;;;;;;;4935566;28;20040;-69
2022/11/20 02:07:37;;;;;;;22.60;12.40;;;;;;;;;;4942349;28;20155;-68
2022/11/20 02:10:14;;;;;;;21.73;12.37;;;;;;;;;;4976965;28;20623;-69
2022/11/20 02:15:32;;;;;;;23.93;11.93;;;;;;;;;;4912301;28;20041;-68
2022/11/20 02:18:23;;;;;;;23.47;12.37;;;;;;;;;;4891622;28;20046;-68
2022/11/20 02:21:42;;;;;;;23.93;13.63;;;;;;;;;;4925223;28;20148;-65
2022/11/20 02:24:24;;;;;;;24.57;12.03;;;;;;;;;;4938084;28;20044;-65
2022/11/20 02:27:19;;;;;;;22.87;12.23;;;;;;;;;;4928770;28;20132;-65
2022/11/20 02:29:50;;;;;;;25.80;13.00;;;;;;;;;;4937900;28;20052;-65
2022/11/20 02:33:03;;;;;;;26.33;13.73;;;;;;;;;;4949312;28;20895;-65
2022/11/20 02:35:43;;;;;;;27.67;13.18;;;;;;;;;;4907868;28;20074;-65
2022/11/20 02:38:15;;;;;;;25.97;13.13;;;;;;;;;;4906601;28;20041;-65
2022/11/20 02:41:00;;;;;;;26.25;12.68;;;;;;;;;;4930937;28;20195;-65
2022/11/20 02:43:34;;;;;;;23.70;12.97;;;;;;;;;;4919049;28;20042;-65
2022/11/20 02:46:03;;;;;;;28.77;13.37;;;;;;;;;;4891451;28;20030;-65
2022/11/20 02:48:34;;;;;;;25.03;13.07;;;;;;;;;;4937362;28;20156;-65
2022/11/20 02:51:20;;;;;;;24.70;12.33;;;;;;;;;;4940128;28;20037;-65
2022/11/20 02:54:03;;;;;;;;;;;;;;;;;;4917390;28;21111;-65
2022/11/20 02:56:40;;;;;;;22.07;11.73;;;;;;;;;;4939824;28;19928;-65
2022/11/20 02:59:28;;;;;;;20.80;11.83;;;;;;;;;;4982384;28;20051;-65
2022/11/20 03:02:00;;;;;;;24.50;12.43;;;;;;;;;;4985019;28;20055;-65
2022/11/20 03:04:34;;;;;;;24.03;12.33;;;;;;;;;;4993174;28;20036;-65
2022/11/20 03:07:12;;;;;;;23.58;12.25;;;;;;;;;;4960657;28;20154;-65
2022/11/20 03:12:38;;;;;;;19.23;11.53;;;;;;;;;;4919572;28;20041;-65
2022/11/20 03:15:15;;;;;;;23.30;11.90;;;;;;;;;;4950476;28;20038;-65
2022/11/20 03:17:46;;;;;;;23.77;12.00;;;;;;;;;;4927877;28;20463;-65
2022/11/20 03:20:30;;;;;;;22.00;11.77;;;;;;;;;;4918242;28;20060;-65
2022/11/20 03:23:08;;;;;;;23.93;12.37;;;;;;;;;;4919740;28;20089;-65
2022/11/20 03:25:46;;;;;;;21.93;11.07;;;;;;;;;;4979216;28;20130;-65
2022/11/20 03:28:15;;;;;;;;;;;;;;;;;;4959494;28;20068;-65
2022/11/20 03:30:53;;;;;;;26.63;13.43;;;;;;;;;;4995148;28;19917;-65
2022/11/20 03:33:23;;;;;;;23.67;12.67;;;;;;;;;;4972078;28;20029;-65
2022/11/20 03:35:55;;;;;;;32.63;15.23;;;;;;;;;;4979502;28;20033;-65
2022/11/20 03:38:26;;;;;;;31.23;16.40;;;;;;;;;;4988661;28;20036;-65
2022/11/20 03:41:03;;;;;;;26.75;15.63;;;;;;;;;;5018315;28;20046;-65
2022/11/20 03:43:49;;;;;;;26.60;14.63;;;;;;;;;;4939883;28;20114;-65
2022/11/20 03:46:24;;;;;;;30.20;14.00;;;;;;;;;;4977956;28;20139;-65
2022/11/20 03:49:05;;;;;;;32.83;15.13;;;;;;;;;;4953695;28;20762;-65
2022/11/20 03:51:37;;;;;;;26.47;13.90;;;;;;;;;;4981094;28;20043;-65
2022/11/20 03:54:05;;;;;;;28.57;14.13;;;;;;;;;;4974711;28;20535;-65
2022/11/20 03:56:39;;;;;;;27.50;13.27;;;;;;;;;;4968226;28;20028;-65
2022/11/20 03:59:13;;;;;;;23.53;12.73;;;;;;;;;;4939445;28;20048;-64
2022/11/20 04:01:45;;;;;;;25.03;13.40;;;;;;;;;;4971854;28;22442;-65
2022/11/20 04:04:16;;;;;;;27.40;14.10;;;;;;;;;;4950460;28;20083;-65
2022/11/20 04:06:42;;;;;;;32.57;16.40;;;;;;;;;;4994370;28;20144;-65
2022/11/20 04:09:19;;;;;;;31.37;15.43;;;;;;;;;;4978399;28;20040;-65
2022/11/20 04:12:01;;;;;;;31.10;15.03;;;;;;;;;;4956638;28;20872;-65
2022/11/20 04:14:38;;;;;;;29.40;14.37;;;;;;;;;;4943680;28;20194;-65
2022/11/20 04:17:07;;;;;;;22.27;12.07;;;;;;;;;;4933555;28;20037;-65
2022/11/20 04:19:35;;;;;;;23.37;12.90;;;;;;;;;;4982251;28;20051;-65
2022/11/20 04:22:03;;;;;;;21.67;12.37;;;;;;;;;;4984110;28;20032;-65
2022/11/20 04:24:37;;;;;;;24.03;12.97;;;;;;;;;;5008654;28;20044;-64
2022/11/20 04:27:14;;;;;;;23.40;12.57;;;;;;;;;;5002890;28;20123;-65
2022/11/20 04:29:47;;;;;;;24.30;12.68;;;;;;;;;;4993976;28;20040;-65
2022/11/20 04:32:13;;;;;;;25.17;13.27;;;;;;;;;;5006205;28;20029;-65
2022/11/20 04:34:39;;;;;;;24.53;13.77;;;;;;;;;;4998788;28;20040;-65
2022/11/20 04:37:08;;;;;;;22.03;12.63;;;;;;;;;;4997343;28;20122;-65
2022/11/20 04:39:40;;;;;;;24.50;13.45;;;;;;;;;;4975534;28;20041;-65
2022/11/20 04:45:22;;;;;;;22.40;12.70;;;;;;;;;;5004864;28;20024;-65
2022/11/20 04:47:51;;;;;;;21.60;12.37;;;;;;;;;;4941543;28;20059;-65
2022/11/20 04:50:19;;;;;;;25.73;13.47;;;;;;;;;;4936486;28;20045;-65
2022/11/20 04:52:57;;;;;;;23.50;13.13;;;;;;;;;;4947202;28;20092;-65
2022/11/20 04:55:42;;;;;;;24.83;13.33;;;;;;;;;;4951551;28;20041;-65
2022/11/20 04:58:13;;;;;;;24.17;13.32;;;;;;;;;;4936829;28;20037;-65
2022/11/20 05:00:54;;;;;;;26.43;13.77;;;;;;;;;;4929215;28;20139;-65
2022/11/20 05:03:35;;;;;;;29.93;14.20;;;;;;;;;;4955200;28;20924;-66
2022/11/20 05:06:06;;;;;;;26.37;14.00;;;;;;;;;;4920935;28;20041;-65
2022/11/20 05:08:43;;;;;;;26.67;14.50;;;;;;;;;;4935625;28;20041;-65
2022/11/20 05:11:19;;;;;;;23.43;13.93;;;;;;;;;;4962458;28;20120;-65
2022/11/20 05:13:48;;;;;;;23.90;14.13;;;;;;;;;;4959262;28;22312;-65
2022/11/20 05:16:20;;;;;;;28.73;15.23;;;;;;;;;;4961985;28;20828;-65
2022/11/20 05:18:46;;;;;;;26.20;14.53;;;;;;;;;;4995215;28;20037;-65
2022/11/20 05:21:12;;;;;;;25.80;14.37;;;;;;;;;;4967271;28;20037;-65
2022/11/20 05:23:47;;;;;;;26.60;13.90;;;;;;;;;;4975167;28;20065;-65
2022/11/20 05:26:15;;;;;;;31.03;14.90;;;;;;;;;;4949206;28;20042;-64
2022/11/20 05:28:48;;;;;;;27.37;15.77;;;;;;;;;;4944254;28;20057;-65
2022/11/20 05:31:16;;;;;;;27.10;15.10;;;;;;;;;;4973840;28;20044;-65
2022/11/20 05:33:42;;;;;;;28.97;14.93;;;;;;;;;;4985238;28;20839;-65
2022/11/20 05:36:07;;;;;;;26.77;15.17;;;;;;;;;;4973204;28;20065;-65
2022/11/20 05:38:34;;;;;;;28.90;16.07;;;;;;;;;;4963299;28;20033;-65
2022/11/20 05:41:06;;;;;;;29.83;16.37;;;;;;;;;;4944928;28;20061;-65
2022/11/20 05:43:31;;;;;;;;;;;;;;;;;;4951414;28;20045;-65
2022/11/20 05:45:59;;;;;;;44.03;22.43;;;;;;;;;;4951935;28;19924;-65
2022/11/20 05:48:38;;;;;;;52.10;27.17;;;;;;;;;;4942329;28;21007;-65
2022/11/20 05:51:08;;;;;;;54.80;27.27;;;;;;;;;;4921230;28;20040;-65
2022/11/20 05:53:42;;;;;;;;;;;;;;;;;;4937453;28;20089;-65
2022/11/20 05:56:16;;;;;;;46.70;24.13;;;;;;;;;;4985078;28;20013;-64
2022/11/20 05:58:42;;;;;;;44.47;22.60;;;;;;;;;;4984121;28;20123;-65
2022/11/20 06:01:11;;;;;;;39.70;22.60;;;;;;;;;;4997138;28;20112;-65
2022/11/20 06:03:47;;;;;;;46.27;25.27;;;;;;;;;;4990431;28;20041;-65
2022/11/20 06:06:16;;;;;;;54.67;26.70;;;;;;;;;;5022293;28;20699;-65
2022/11/20 06:08:51;;;;;;;49.80;28.55;;;;;;;;;;4980550;28;20124;-65
2022/11/20 06:11:25;;;;;;;53.43;27.70;;;;;;;;;;4994039;28;20066;-65
2022/11/20 06:13:54;;;;;;;61.43;28.23;;;;;;;;;;4995290;28;20080;-65
2022/11/20 06:16:22;;;;;;;49.40;27.10;;;;;;;;;;4980055;28;20033;-65
2022/11/20 06:18:48;;;;;;;55.33;27.17;;;;;;;;;;4987314;28;20231;-65
2022/11/20 06:21:15;;;;;;;47.87;25.93;;;;;;;;;;4997680;28;20067;-65
2022/11/20 06:23:41;;;;;;;52.67;26.47;;;;;;;;;;4976270;28;20032;-66
2022/11/20 06:26:08;;;;;;;50.40;26.43;;;;;;;;;;5000720;28;20028;-65
2022/11/20 06:28:39;;;;;;;49.70;27.17;;;;;;;;;;5000338;28;20677;-64
2022/11/20 06:31:08;;;;;;;48.87;26.63;;;;;;;;;;4964145;28;20348;-65
2022/11/20 06:33:37;;;;;;;49.60;26.43;;;;;;;;;;4976694;28;20114;-65
2022/11/20 06:36:03;;;;;;;51.67;26.43;;;;;;;;;;4919636;28;20206;-65
2022/11/20 06:38:31;;;;;;;43.00;23.23;;;;;;;;;;4957420;28;20044;-65
2022/11/20 06:40:56;;;;;;;40.13;21.97;;;;;;;;;;5003651;28;20731;-65
2022/11/20 06:43:22;;;;;;;35.80;19.83;;;;;;;;;;5001495;28;20093;-66
2022/11/20 06:45:52;;;;;;;32.67;18.67;;;;;;;;;;4982694;28;20564;-65
2022/11/20 06:48:25;;;;;;;34.93;20.23;;;;;;;;;;4968888;28;22441;-65
2022/11/20 06:50:53;;;;;;;35.23;19.43;;;;;;;;;;4991409;28;20513;-64
2022/11/20 06:53:22;;;;;;;34.70;19.00;;;;;;;;;;4988003;28;20522;-65
2022/11/20 06:55:54;;;;;;;33.27;19.47;;;;;;;;;;5012460;28;21174;-65
2022/11/20 06:58:26;;;;;;;33.47;18.77;;;;;;;;;;4996594;28;20410;-65
2022/11/20 07:01:04;;;;;;;33.70;19.40;;;;;;;;;;4967357;28;20083;-65
2022/11/20 07:03:32;;;;;;;33.77;19.80;;;;;;;;;;4978730;28;20619;-65
2022/11/20 07:06:02;;;;;;;33.60;19.73;;;;;;;;;;5002077;28;20383;-65
2022/11/20 07:08:39;;;;;;;33.13;19.67;;;;;;;;;;4988005;28;20490;-65
2022/11/20 07:11:11;;;;;;;36.33;20.13;;;;;;;;;;4985102;28;20039;-65
2022/11/20 07:13:36;;;;;;;35.40;19.53;;;;;;;;;;4986231;28;20869;-65
2022/11/20 07:16:09;;;;;;;34.17;19.47;;;;;;;;;;4982897;28;20036;-65
2022/11/20 07:18:35;;;;;;;30.97;18.30;;;;;;;;;;5008568;28;20029;-66
2022/11/20 07:21:01;;;;;;;28.60;18.33;;;;;;;;;;4982850;28;20291;-65
2022/11/20 07:23:28;;;;;;;33.27;18.43;;;;;;;;;;4984628;28;20037;-65
2022/11/20 07:26:02;;;;;;;34.87;18.33;;;;;;;;;;4960786;28;20090;-66
2022/11/20 07:28:30;;;;;;;34.10;18.97;;;;;;;;;;4920235;28;20476;-65
2022/11/20 07:30:59;;;;;;;40.10;20.50;;;;;;;;;;4968510;28;20030;-65
2022/11/20 07:33:27;;;;;;;36.53;21.10;;;;;;;;;;4961544;28;20825;-65
2022/11/20 07:35:58;;;;;;;35.00;20.00;;;;;;;;;;4985006;28;20036;-65
2022/11/20 07:38:26;;;;;;;35.00;20.10;;;;;;;;;;4983840;28;20082;-65
2022/11/20 07:40:57;;;;;;;34.43;19.33;;;;;;;;;;4998702;28;21295;-65
2022/11/20 07:43:23;;;;;;;37.60;20.87;;;;;;;;;;4966128;28;20044;-65
2022/11/20 07:45:50;;;;;;;34.83;20.47;;;;;;;;;;4997332;28;20045;-65
2022/11/20 07:48:15;;;;;;;34.73;20.53;;;;;;;;;;4975432;28;20025;-65
2022/11/20 07:50:41;;;;;;;35.87;21.47;;;;;;;;;;4980215;28;20237;-65
2022/11/20 07:53:09;;;;;;;40.57;22.90;;;;;;;;;;4959953;28;20026;-65
2022/11/20 07:55:35;;;;;;;39.50;21.37;;;;;;;;;;4970746;28;21027;-65
2022/11/20 07:58:04;;;;;;;31.90;20.60;;;;;;;;;;4973471;28;20492;-65
2022/11/20 08:00:29;;;;;;;32.57;20.17;;;;;;;;;;4978513;28;20115;-65
2022/11/20 08:02:57;;;;;;;36.53;21.60;;;;;;;;;;4977275;28;20136;-65
2022/11/20 08:05:22;;;;;;;35.43;20.80;;;;;;;;;;5006613;28;20636;-65
2022/11/20 08:07:48;;;;;;;34.80;20.57;;;;;;;;;;4976966;28;20052;-65
2022/11/20 08:10:15;;;;;;;36.43;22.13;;;;;;;;;;4976551;28;20045;-65
2022/11/20 08:15:35;;;;;;;36.43;20.70;;;;;;;;;;4976396;28;20065;-65
2022/11/20 08:18:04;;;;;;;31.00;19.90;;;;;;;;;;4971406;28;20077;-65
2022/11/20 08:20:30;;;;;;;30.50;19.30;;;;;;;;;;4988666;28;20064;-66
2022/11/20 08:22:59;;;;;;;34.30;20.10;;;;;;;;;;4983960;28;20071;-65
2022/11/20 08:25:28;;;;;;;35.87;21.20;;;;;;;;;;4977253;28;20037;-65
2022/11/20 08:27:53;;;;;;;38.80;22.50;;;;;;;;;;4978267;28;20425;-65
2022/11/20 08:30:19;;;;;;;36.97;20.73;;;;;;;;;;4979896;28;20127;-67
2022/11/20 08:32:44;;;;;;;32.63;20.23;;;;;;;;;;4978640;28;20086;-65
2022/11/20 08:35:11;;;;;;;31.45;19.48;;;;;;;;;;4995537;28;20034;-65
2022/11/20 08:37:41;;;;;;;31.60;18.97;;;;;;;;;;4979553;28;20033;-65
2022/11/20 08:40:07;;;;;;;28.40;18.03;;;;;;;;;;4980480;28;20046;-65
2022/11/20 08:42:32;;;;;;;32.20;18.15;;;;;;;;;;4980666;28;20116;-65
2022/11/20 08:44:58;;;;;;;30.67;19.17;;;;;;;;;;4978630;28;20164;-65
2022/11/20 08:47:32;;;;;;;29.63;19.02;;;;;;;;;;4984489;28;20037;-65
2022/11/20 08:49:58;;;;;;;31.92;20.60;;;;;;;;;;4981028;28;20099;-65
2022/11/20 08:52:26;;;;;;;38.00;21.73;;;;;;;;;;4982332;28;20046;-65
2022/11/20 08:54:54;;;;;;;33.63;20.42;;;;;;;;;;4973503;28;20050;-66
2022/11/20 08:57:23;;;;;;;35.88;20.90;;;;;;;;;;4995488;28;20041;-65
2022/11/20 08:59:49;;;;;;;34.45;21.42;;;;;;;;;;4979248;28;20042;-65
2022/11/20 09:02:15;;;;;;;38.15;21.08;;;;;;;;;;4983669;28;20176;-65
2022/11/20 09:04:40;;;;;;;37.58;20.88;;;;;;;;;;4958444;28;20046;-65
2022/11/20 09:07:08;;;;;;;28.63;18.42;;;;;;;;;;4985688;28;20049;-65
2022/11/20 09:09:34;;;;;;;30.15;18.17;;;;;;;;;;4977751;28;20111;-67
2022/11/20 09:11:59;;;;;;;26.08;16.95;;;;;;;;;;4978479;28;20089;-67
2022/11/20 09:14:28;;;;;;;27.60;17.67;;;;;;;;;;5007003;28;21332;-68
2022/11/20 09:16:54;;;;;;;27.40;17.67;;;;;;;;;;4989054;28;20029;-65
2022/11/20 09:19:20;;;;;;;25.70;16.50;;;;;;;;;;4978916;28;20053;-65
2022/11/20 09:21:49;;;;;;;26.67;17.48;;;;;;;;;;4981489;28;20605;-65
2022/11/20 09:24:14;;;;;;;28.63;17.33;;;;;;;;;;4979545;28;20053;-65
2022/11/20 09:26:40;;;;;;;28.23;18.10;;;;;;;;;;4979054;28;20646;-65
2022/11/20 09:29:05;;;;;;;28.02;17.13;;;;;;;;;;4973028;28;20053;-65
2022/11/20 09:31:36;;;;;;;31.25;18.05;;;;;;;;;;4978318;28;20823;-66
2022/11/20 09:34:01;;;;;;;31.77;18.52;;;;;;;;;;4964795;28;20037;-66
2022/11/20 09:36:27;;;;;;;27.83;16.75;;;;;;;;;;4978275;28;20051;-65
2022/11/20 09:38:53;;;;;;;29.83;17.10;;;;;;;;;;4978193;28;20040;-66
2022/11/20 09:41:28;;;;;;;27.42;16.27;;;;;;;;;;4970080;28;20127;-65
2022/11/20 09:43:56;;;;;;;27.83;16.58;;;;;;;;;;4980430;28;20155;-66
2022/11/20 09:46:28;;;;;;;33.03;17.88;;;;;;;;;;4980343;28;20045;-66
2022/11/20 09:48:53;;;;;;;31.92;19.20;;;;;;;;;;4974577;28;20061;-69
2022/11/20 09:51:25;;;;;;;26.98;17.98;;;;;;;;;;4994460;28;20030;-70
2022/11/20 09:54:02;;;;;;;31.75;17.98;;;;;;;;;;4981025;28;20045;-69
2022/11/20 09:56:28;;;;;;;33.63;19.10;;;;;;;;;;4980782;28;20779;-70
2022/11/20 09:58:55;;;;;;;32.95;18.77;;;;;;;;;;4974966;28;20033;-70
2022/11/20 10:01:22;;;;;;;32.38;17.45;;;;;;;;;;4978150;28;20034;-69
2022/11/20 10:03:47;;;;;;;28.58;16.60;;;;;;;;;;4979544;28;21176;-70
2022/11/20 10:06:16;;;;;;;25.83;16.25;;;;;;;;;;4984128;28;20033;-70
2022/11/20 10:08:48;;;;;;;27.40;16.48;;;;;;;;;;5002421;28;20107;-69
2022/11/20 10:11:23;;;;;;;26.50;17.37;;;;;;;;;;4978386;28;20042;-70
2022/11/20 10:13:54;;;;;;;28.52;17.85;;;;;;;;;;4980015;28;20885;-71
2022/11/20 10:16:28;;;;;;;32.20;19.35;;;;;;;;;;4984681;28;20033;-70
2022/11/20 10:18:56;;;;;;;36.53;19.58;;;;;;;;;;4983916;28;20032;-70
2022/11/20 10:21:40;;;;;;;33.08;21.50;;;;;;;;;;4982446;28;20041;-70
2022/11/20 10:24:24;;;;;;;34.90;20.52;;;;;;;;;;5009551;28;20035;-71
2022/11/20 10:27:01;;;;;;;33.00;19.40;;;;;;;;;;4974745;28;20041;-71
2022/11/20 10:29:32;;;;;;;29.15;18.85;;;;;;;;;;4979048;28;20527;-71
2022/11/20 10:32:01;;;;;;;31.63;19.95;;;;;;;;;;4991907;28;20508;-71
2022/11/20 10:34:31;;;;;;;35.10;20.20;;;;;;;;;;5015025;28;20033;-70
2022/11/20 10:37:09;;;;;;;36.78;20.88;;;;;;;;;;4999013;28;20043;-71
2022/11/20 10:39:53;;;;;;;31.63;20.95;;;;;;;;;;4988806;28;20489;-71
2022/11/20 10:42:26;;;;;;;31.17;21.00;;;;;;;;;;4995081;28;20040;-71
2022/11/20 10:45:01;;;;;;;39.92;23.38;;;;;;;;;;4990701;28;20300;-71
2022/11/20 10:47:27;;;;;;;32.78;21.27;;;;;;;;;;4967142;28;20352;-70
2022/11/20 10:49:53;;;;;;;34.25;21.58;;;;;;;;;;4969438;28;20048;-72
2022/11/20 10:52:44;;;;;;;37.63;22.48;;;;;;;;;;4973296;28;20086;-71
2022/11/20 10:55:28;;;;;;;35.42;21.02;;;;;;;;;;4994840;28;20123;-72
2022/11/20 10:58:03;;;;;;;37.22;20.73;;;;;;;;;;4975363;28;20052;-72
2022/11/20 11:00:32;;;;;;;35.42;21.77;;;;;;;;;;4976699;28;20071;-71
2022/11/20 11:03:02;;;;;;;37.30;21.77;;;;;;;;;;4971829;28;20923;-71
2022/11/20 11:05:28;;;;;;;59.85;29.98;;;;;;;;;;4977172;28;20244;-72
2022/11/20 11:07:54;;;;;;;72.50;37.45;;;;;;;;;;4979624;28;20038;-72
2022/11/20 11:10:20;;;;;;;65.85;30.75;;;;;;;;;;4978424;28;20141;-72
2022/11/20 11:12:47;;;;;;;49.95;27.23;;;;;;;;;;4974325;28;20046;-72
2022/11/20 11:15:15;;;;;;;37.08;22.75;;;;;;;;;;4979194;28;20033;-71
2022/11/20 11:17:46;;;;;;;38.50;24.02;;;;;;;;;;4974870;28;20068;-72
2022/11/20 11:20:13;;;;;;;36.72;22.38;;;;;;;;;;4975753;28;20072;-71
2022/11/20 11:22:51;;;;;;;34.40;21.35;;;;;;;;;;4973690;28;21776;-72
2022/11/20 11:25:21;;;;;;;36.65;22.30;;;;;;;;;;4980515;28;20073;-73
2022/11/20 11:27:47;;;;;;;44.40;24.70;;;;;;;;;;4977991;28;20040;-72
2022/11/20 11:30:14;;;;;;;39.63;23.35;;;;;;;;;;5011451;28;20103;-71
2022/11/20 11:32:39;;;;;;;36.72;23.20;;;;;;;;;;5007213;28;20044;-72
2022/11/20 11:35:06;;;;;;;35.13;21.77;;;;;;;;;;4984297;28;20148;-71
2022/11/20 11:37:39;;;;;;;36.05;21.77;;;;;;;;;;4973106;28;20181;-72
2022/11/20 11:40:05;;;;;;;38.03;21.75;;;;;;;;;;4994020;28;20490;-71
2022/11/20 11:42:30;;;;;;;36.90;21.60;;;;;;;;;;4991297;28;20553;-72
2022/11/20 11:45:07;;;;;;;35.95;21.00;;;;;;;;;;4990027;28;20508;-71
2022/11/20 11:47:33;;;;;;;35.78;20.98;;;;;;;;;;4993532;28;20037;-72
2022/11/20 11:50:09;;;;;;;37.33;22.27;;;;;;;;;;4990827;28;20809;-71
2022/11/20 11:52:55;;;;;;;35.17;21.85;;;;;;;;;;4992020;28;20683;-73
2022/11/20 11:55:33;;;;;;;37.45;21.88;;;;;;;;;;4995260;28;20457;-73
2022/11/20 11:58:10;;;;;;;40.42;24.25;;;;;;;;;;4992051;28;20128;-73
2022/11/20 12:00:36;;;;;;;38.80;24.10;;;;;;;;;;4986684;28;20068;-76
2022/11/20 12:03:05;;;;;;;39.83;24.20;;;;;;;;;;4991430;28;20037;-73
2022/11/20 12:05:49;;;;;;;40.50;25.27;;;;;;;;;;4965856;28;20066;-73
2022/11/20 12:08:26;;;;;;;44.83;25.63;;;;;;;;;;4943741;28;20136;-72
2022/11/20 12:11:04;;;;;;;51.47;27.83;;;;;;;;;;4996234;28;20041;-74
2022/11/20 12:13:29;;;;;;;50.03;27.75;;;;;;;;;;4997825;28;20539;-74
2022/11/20 12:16:00;;;;;;;48.95;28.83;;;;;;;;;;4998778;28;20686;-74
2022/11/20 12:18:27;;;;;;;49.67;29.05;;;;;;;;;;5009459;28;20048;-74
2022/11/20 12:21:05;;;;;;;47.85;27.17;;;;;;;;;;4996679;28;20033;-75
2022/11/20 12:23:39;;;;;;;47.40;28.25;;;;;;;;;;5002739;28;20521;-74
2022/11/20 12:26:10;;;;;;;49.70;28.85;;;;;;;;;;5000858;28;20645;-75
2022/11/20 12:29:05;;;;;;;53.88;30.02;;;;;;;;;;4981205;28;20068;-74
2022/11/20 12:32:10;;;;;;;49.63;28.50;;;;;;;;;;4962045;28;20044;-72
2022/11/20 12:34:54;;;;;;;56.35;29.52;;;;;;;;;;4962535;28;20051;-72
2022/11/20 12:37:25;;;;;;;56.00;31.13;;;;;;;;;;4956417;28;20163;-71
2022/11/20 12:39:52;;;;;;;56.53;30.65;;;;;;;;;;4969208;28;20458;-72
2022/11/20 12:45:31;;;;;;;54.38;30.90;;;;;;;;;;5004638;28;20299;-73
2022/11/20 12:47:59;;;;;;;51.85;31.17;;;;;;;;;;5000343;28;20356;-72
2022/11/20 12:50:25;;;;;;;53.75;30.08;;;;;;;;;;4977051;28;20562;-72
2022/11/20 12:52:56;;;;;;;57.63;31.40;;;;;;;;;;4967404;28;20037;-72
2022/11/20 12:55:51;;;;;;;55.63;31.40;;;;;;;;;;4943883;28;20149;-72
2022/11/20 12:58:22;;;;;;;50.47;30.15;;;;;;;;;;4959720;28;20801;-72
2022/11/20 13:01:00;;;;;;;50.75;30.08;;;;;;;;;;5001033;28;20041;-74
2022/11/20 13:03:31;;;;;;;52.05;29.85;;;;;;;;;;4986123;28;20040;-73
2022/11/20 13:06:00;;;;;;;58.60;30.63;;;;;;;;;;4991567;28;20157;-73
2022/11/20 13:08:26;;;;;;;61.38;32.60;;;;;;;;;;4980352;28;20497;-72
2022/11/20 13:10:58;;;;;;;56.88;32.65;;;;;;;;;;4985961;28;20041;-72
2022/11/20 13:13:33;;;;;;;58.05;33.50;;;;;;;;;;4968935;28;20038;-74
2022/11/20 13:16:02;;;;;;;59.47;33.30;;;;;;;;;;4984089;28;20040;-75
2022/11/20 13:18:28;;;;;;;54.85;31.95;;;;;;;;;;4983083;28;20034;-75
2022/11/20 13:20:56;;;;;;;59.78;33.58;;;;;;;;;;4981194;28;20048;-77
2022/11/20 13:23:26;;;;;;;59.38;32.72;;;;;;;;;;4976448;28;20976;-75
2022/11/20 13:26:02;;;;;;;61.17;33.35;;;;;;;;;;4981052;28;20038;-75
2022/11/20 13:28:29;;;;;;;57.47;32.60;;;;;;;;;;4979497;28;20030;-75
2022/11/20 13:30:55;;;;;;;61.22;33.40;;;;;;;;;;4973839;28;20734;-75
2022/11/20 13:33:27;;;;;;;58.65;32.75;;;;;;;;;;5010048;28;20282;-74
2022/11/20 13:35:58;;;;;;;63.17;34.53;;;;;;;;;;4982875;28;20097;-77
2022/11/20 13:38:23;;;;;;;60.10;32.33;;;;;;;;;;4971712;28;20096;-74
2022/11/20 13:40:53;;;;;;;60.17;32.50;;;;;;;;;;4984441;28;20037;-75
2022/11/20 13:43:22;;;;;;;64.75;32.75;;;;;;;;;;4981313;28;21146;-76
2022/11/20 13:46:24;;;;;;;63.35;33.67;;;;;;;;;;4969464;28;20041;-75
2022/11/20 13:48:54;;;;;;;61.58;31.83;;;;;;;;;;4925768;28;20646;-77
2022/11/20 13:51:46;;;;;;;67.25;34.53;;;;;;;;;;4957777;28;20126;-75
2022/11/20 13:54:34;;;;;;;65.97;34.25;;;;;;;;;;4997346;28;20970;-75
2022/11/20 13:57:31;;;;;;;64.10;33.33;;;;;;;;;;4941929;28;20591;-74
2022/11/20 14:00:17;;;;;;;63.95;33.17;;;;;;;;;;4974863;28;20033;-77
2022/11/20 14:02:57;;;;;;;67.53;33.28;;;;;;;;;;4991485;28;20032;-77
2022/11/20 14:05:26;;;;;;;69.05;34.70;;;;;;;;;;5021365;28;20144;-75
2022/11/20 14:07:52;;;;;;;68.88;33.60;;;;;;;;;;4994803;28;20032;-75
2022/11/20 14:10:23;;;;;;;69.28;34.67;;;;;;;;;;5001706;28;20032;-74
2022/11/20 14:12:51;;;;;;;70.63;34.60;;;;;;;;;;5020054;28;20035;-74
2022/11/20 14:15:32;;;;;;;67.43;33.65;;;;;;;;;;4992203;28;20120;-73
2022/11/20 14:18:04;;;;;;;69.18;36.08;;;;;;;;;;4983480;28;20081;-74
2022/11/20 14:20:34;;;;;;;70.07;34.88;;;;;;;;;;4992131;28;20039;-75
2022/11/20 14:23:06;;;;;;;84.05;39.60;;;;;;;;;;4996290;28;20033;-74
2022/11/20 14:25:58;;;;;;;74.43;35.47;;;;;;;;;;4953443;28;20603;-74
2022/11/20 14:28:31;;;;;;;79.25;36.22;;;;;;;;;;4928895;28;22273;-77
2022/11/20 14:30:59;;;;;;;69.30;36.13;;;;;;;;;;4984332;28;20036;-77
2022/11/20 14:33:28;;;;;;;73.77;34.77;;;;;;;;;;4982575;28;21258;-77
2022/11/20 14:35:57;;;;;;;68.97;35.88;;;;;;;;;;4951568;28;20311;-76
2022/11/20 14:38:42;;;;;;;67.13;34.38;;;;;;;;;;4978963;28;20089;-76
2022/11/20 14:41:21;;;;;;;76.20;35.63;;;;;;;;;;4944860;28;20036;-77
2022/11/20 14:44:02;;;;;;;72.93;37.45;;;;;;;;;;4965804;28;20048;-79
2022/11/20 14:46:41;;;;;;;74.03;36.80;;;;;;;;;;4963123;28;20942;-76
2022/11/20 14:49:10;;;;;;;81.57;36.33;;;;;;;;;;4977297;28;20148;-75
2022/11/20 14:51:46;;;;;;;84.13;38.38;;;;;;;;;;4972673;28;20048;-75
2022/11/20 14:54:18;;;;;;;78.50;38.10;;;;;;;;;;4955413;28;20982;-76
2022/11/20 14:56:58;;;;;;;83.70;39.50;;;;;;;;;;4994739;28;20041;-75
2022/11/20 14:59:38;;;;;;;77.10;37.80;;;;;;;;;;4974505;28;20968;-78
2022/11/20 15:02:11;;;;;;;75.78;37.17;;;;;;;;;;4947335;28;20037;-77
2022/11/20 15:05:09;;;;;;;78.28;38.03;;;;;;;;;;4947529;28;20133;-76
2022/11/20 15:07:47;;;;;;;76.60;38.17;;;;;;;;;;4951181;28;20223;-77
2022/11/20 15:10:21;;;;;;;74.78;36.70;;;;;;;;;;4979317;28;20888;-77
2022/11/20 15:12:47;;;;;;;78.93;38.25;;;;;;;;;;4980747;28;20041;-77
2022/11/20 15:15:16;;;;;;;78.07;37.67;;;;;;;;;;4978107;28;20856;-77
2022/11/20 15:17:42;;;;;;;79.57;37.13;;;;;;;;;;4980515;28;20037;-76
2022/11/20 15:20:14;;;;;;;78.15;38.33;;;;;;;;;;4979230;28;20068;-76
2022/11/20 15:22:39;;;;;;;75.05;36.28;;;;;;;;;;4973546;28;20159;-75
2022/11/20 15:25:24;;;;;;;69.75;35.45;;;;;;;;;;4980607;28;20615;-75